• Join FlightAware (Why Join?)
  • Login
  • US Flag 
11:21AM EDT


 

Airport Tracker/Info


-or-


 

Live Flight TrackerFlight Track Log ✈ ACA1121 ✈ 24-Apr-2012 ✈ CYYZ - CYXE

Flight Track Log - Related Links

Times and Time Zones

All times are in EDT time to prevent confusion due to time zone crossing. See the ACA1121 flight status page for this flight to view local times or setup timezone preferences in your user account.

Time Position Orientation Groundspeed Altitude Reporting Facility
EDT Latitude Longitude Course Direction KTS MPH feet Rate Location/Type
08:53AM 43.6944 -79.6568 207° Southwest  Level FlightAware Approximate
08:54AM 43.7389 -79.7835 150° Southeast  Level FlightAware Approximate
08:55AM 43.6333 -79.7000 251° West 200 230 3,200  Level Toronto Center
08:56AM 43.6167 -79.7667 270° West 200 230 5,400 1,620 Climbing Toronto Center
08:57AM 43.6167 -79.8667 285° West 250 288 6,500 1,740 Climbing Toronto Center
08:58AM 43.6333 -79.9500 316° Northwest 240 276 8,900 2,040 Climbing Toronto Center
08:59AM 43.6833 -80.0167 318° Northwest 260 299 10,600 1,500 Climbing Toronto Center
09:00AM 43.7500 -80.1000 310° West 310 357 11,900 1,500 Climbing Toronto Center
09:01AM 43.8000 -80.1833 319° Northwest 330 380 13,700 1,980 Climbing Toronto Center
09:02AM 43.8833 -80.2833 310° West 340 391 15,900 2,340 Climbing Toronto Center
09:03AM 43.9333 -80.3667 308° West 340 391 18,400 2,400 Climbing Toronto Center
09:04AM 44.0000 -80.4833 313° West 340 391 20,700 1,860 Climbing Toronto Center
09:05AM 44.0667 -80.5833 313° West 340 391 22,200 1,380 Climbing Toronto Center
09:06AM 44.1333 -80.6833 315° West 350 403 23,500 1,440 Climbing Toronto Center
09:07AM 44.2167 -80.8000 310° West 360 414 25,100 1,500 Climbing Toronto Center
09:08AM 44.2667 -80.8833 313° West 360 414 26,500 1,320 Climbing Toronto Center
09:09AM 44.3333 -80.9833 309° West 360 414 27,800 1,080 Climbing Toronto Center
09:10AM 44.4000 -81.1000 319° Northwest 370 426 28,700 720 Climbing Toronto Center
09:11AM 44.4833 -81.2000 309° West 380 437 29,300 360 Climbing Toronto Center
09:12AM 44.5500 -81.3167 315° West 390 449 29,500 300 Climbing Toronto Center
09:13AM 44.6333 -81.4333 309° West 410 472 30,000 240 Climbing Toronto Center
09:14AM 44.7000 -81.5500 311° West 410 472 30,000  Level Toronto Center
09:15AM 44.7833 -81.6833 315° West 410 472 30,000  Level Toronto Center
09:16AM 44.8667 -81.8000 309° West 410 472 30,000  Level Toronto Center
09:17AM 44.9333 -81.9167 309° West 410 472 30,000  Level Toronto Center
09:18AM 45.0000 -82.0333 312° West 410 472 30,000  Level Toronto Center
09:19AM 45.0833 -82.1667 315° West 410 472 30,000  Level Toronto Center
09:20AM 45.1667 -82.2833 313° West 410 472 30,000  Level Toronto Center
09:21AM 45.2333 -82.3833 315° West 400 460 30,000  Level Toronto Center
09:22AM 45.3167 -82.5000 309° West 400 460 30,000  Level Toronto Center
09:23AM 45.3833 -82.6167 306° West 400 460 30,000  Level Toronto Center
09:24AM 45.4500 -82.7500 316° Northwest 400 460 30,000  Level Toronto Center
09:25AM 45.5333 -82.8667 314° West 400 460 30,000  Level Toronto Center
09:26AM 45.6000 -82.9667 312° West 400 460 30,000  Level Toronto Center
09:27AM 45.6833 -83.1000 309° West 400 460 30,000  Level Toronto Center
09:28AM 45.7500 -83.2167 309° West 400 460 30,000  Level Toronto Center
09:29AM 45.8167 -83.3333 312° West 400 460 30,000  Level Toronto Center
09:30AM 45.9000 -83.4667 314° West 400 460 30,000  Level Toronto Center
09:31AM 45.9667 -83.5667 309° West 400 460 30,000  Level Toronto Center
09:32AM 46.0500 -83.7167 310° West 400 460 30,000  Level Toronto Center
09:34AM 46.1833 -83.9500 316° Northwest 400 460 30,000  Level Toronto Center
09:35AM 46.2667 -84.0667 306° West 400 460 30,000  Level Toronto Center
09:36AM 46.3333 -84.2000 310° West 400 460 30,000  Level Toronto Center
09:37AM 46.4000 -84.3167 303° West 410 472 30,000  Level Toronto Center
09:38AM 46.4667 -84.4667 299° West 410 472 30,000  Level Toronto Center
09:39AM 46.5167 -84.6000 296° West 410 472 30,000  Level Toronto Center
09:40AM 46.5667 -84.7500 303° West 410 472 30,000  Level Toronto Center
09:41AM 46.6333 -84.9000 296° West 400 460 30,000  Level Toronto Center
09:42AM 46.6833 -85.0500 299° West 410 472 30,000  Level Toronto Center
09:43AM 46.7333 -85.1833 303° West 410 472 30,000  Level Toronto Center
09:44AM 46.8000 -85.3333 296° West 410 472 30,000  Level Toronto Center
09:45AM 46.8500 -85.4833 299° West 410 472 30,000  Level Toronto Center
09:46AM 46.9000 -85.6167 303° West 410 472 30,000  Level Toronto Center
09:47AM 46.9667 -85.7667 296° West 410 472 30,000  Level Winnipeg Center
09:48AM 47.0167 -85.9167 290° West 410 472 30,000  Level Toronto Center
09:49AM 47.0500 -86.0500 303° West 400 460 30,000  Level Toronto Center
09:50AM 47.1167 -86.2000 296° West 400 460 30,000  Level Toronto Center
09:51AM 47.1667 -86.3500 299° West 400 460 30,000  Level Toronto Center
09:52AM 47.2167 -86.4833 296° West 400 460 30,000  Level Toronto Center
09:53AM 47.2667 -86.6333 299° West 390 449 30,000  Level Toronto Center
09:54AM 47.3167 -86.7667 299° West 390 449 30,000  Level Toronto Center
09:55AM 47.3667 -86.9000 296° West 390 449 30,000  Level Toronto Center
09:56AM 47.4167 -87.0500 299° West 380 437 30,000  Level Toronto Center
09:57AM 47.4667 -87.1833 296° West 390 449 30,000  Level Toronto Center
09:58AM 47.5167 -87.3333 315° West 380 437 30,000  Level Toronto Center
09:59AM 47.5833 -87.4333 288° West 370 426 30,000  Level Winnipeg Center
10:00AM 47.6167 -87.5833 299° West 370 426 30,000  Level Winnipeg Center
10:01AM 47.6667 -87.7167 303° West 370 426 30,000  Level Winnipeg Center
10:02AM 47.7167 -87.8333 288° West 370 426 30,000  Level Winnipeg Center
10:03AM 47.7500 -87.9833 299° West 370 426 30,000  Level Winnipeg Center
10:04AM 47.8000 -88.1167 303° West 360 414 30,000  Level Winnipeg Center
10:05AM 47.8500 -88.2333 296° West 360 414 30,000  Level Winnipeg Center
10:06AM 47.9000 -88.3833 299° West 360 414 30,000  Level Winnipeg Center
10:07AM 47.9500 -88.5167 303° West 360 414 30,000  Level Winnipeg Center
10:08AM 48.0000 -88.6333 288° West 350 403 30,000  Level Winnipeg Center
10:09AM 48.0333 -88.7833 303° West 350 403 30,000  Level Winnipeg Center
10:10AM 48.0833 -88.9000 288° West 350 403 30,000  Level Winnipeg Center
10:11AM 48.1167 -89.0500 293° West 350 403 30,000  Level Winnipeg Center
10:12AM 48.1500 -89.1667 293° West 340 391 30,000  Level Winnipeg Center
10:13AM 48.1833 -89.2833 303° West 340 391 30,000  Level Winnipeg Center
10:14AM 48.2333 -89.4000 297° West 330 380 30,000  Level Winnipeg Center
10:15AM 48.2833 -89.5500 293° West 330 380 30,000  Level Winnipeg Center
10:16AM 48.3167 -89.6667 291° West 330 380 30,000  Level Winnipeg Center
10:17AM 48.3500 -89.8000 293° West 330 380 30,000  Level Winnipeg Center
10:18AM 48.3833 -89.9167 300° West 330 380 30,000  Level Winnipeg Center
10:19AM 48.4333 -90.0500 281° West 330 380 30,000  Level Winnipeg Center
10:20AM 48.4500 -90.1833 293° West 330 380 30,000  Level Winnipeg Center
10:21AM 48.4833 -90.3000 297° West 330 380 30,000  Level Winnipeg Center
10:22AM 48.5333 -90.4500 282° West 330 380 30,000  Level Winnipeg Center
10:23AM 48.5500 -90.5667 297° West 340 391 30,000  Level Winnipeg Center
10:24AM 48.6000 -90.7167 293° West 340 391 30,000  Level Winnipeg Center
10:25AM 48.6333 -90.8333 300° West 340 391 30,000  Level Winnipeg Center
10:26AM 48.6833 -90.9667 280° West 340 391 30,000  Level Winnipeg Center
10:27AM 48.7000 -91.1167 303° West 340 391 30,000  Level Winnipeg Center
10:28AM 48.7500 -91.2333 289° West 340 391 30,000  Level Winnipeg Center
10:29AM 48.7833 -91.3833 303° West 340 391 30,000  Level Winnipeg Center
10:30AM 48.8333 -91.5000 281° West 340 391 30,000  Level Winnipeg Center
10:31AM 48.8500 -91.6333 289° West 340 391 30,000  Level Winnipeg Center
10:32AM 48.8833 -91.7833 303° West 340 391 30,000  Level Winnipeg Center
10:33AM 48.9333 -91.9000 286° West 340 391 30,000  Level Winnipeg Center
10:35AM 48.9833 -92.1667 300° West 340 391 30,000  Level Winnipeg Center
10:36AM 49.0333 -92.3000 289° West 340 391 30,000  Level Winnipeg Center
10:37AM 49.0667 -92.4500 291° West 340 391 30,000  Level Winnipeg Center
10:39AM 49.1333 -92.7167 291° West 340 391 30,000  Level Winnipeg Center
10:40AM 49.1667 -92.8500 294° West 340 391 30,000  Level Winnipeg Center
10:41AM 49.2000 -92.9667 297° West 340 391 30,000  Level Winnipeg Center
10:42AM 49.2500 -93.1167 281° West 340 391 30,000  Level Winnipeg Center
10:43AM 49.2667 -93.2500 289° West 340 391 30,000  Level Winnipeg Center
10:44AM 49.3000 -93.4000 291° West 340 391 30,000  Level Winnipeg Center
10:45AM 49.3333 -93.5333 297° West 350 403 30,000  Level Winnipeg Center
10:46AM 49.3833 -93.6833 282° West 340 391 30,000  Level Winnipeg Center
10:47AM 49.4000 -93.8000 289° West 350 403 30,000  Level Winnipeg Center
10:48AM 49.4333 -93.9500 291° West 350 403 30,000  Level Winnipeg Center
10:49AM 49.4667 -94.0833 291° West 340 391 30,000  Level Winnipeg Center
10:50AM 49.5000 -94.2167 289° West 340 391 30,000  Level Winnipeg Center
10:51AM 49.5333 -94.3667 294° West 340 391 30,000  Level Winnipeg Center
10:52AM 49.5667 -94.4833 287° West 340 391 30,000  Level Winnipeg Center
10:53AM 49.6000 -94.6500 282° West 350 403 30,000  Level Winnipeg Center
10:54AM 49.6167 -94.7667 297° West 350 403 30,000  Level Winnipeg Center
10:55AM 49.6667 -94.9167 291° West 340 391 30,000  Level Winnipeg Center
10:56AM 49.7000 -95.0500 280° West 350 403 30,000  Level Winnipeg Center
10:57AM 49.7167 -95.2000 287° West 350 403 30,000  Level Winnipeg Center
10:58AM 49.7500 -95.3667 294° West 350 403 30,000  Level Winnipeg Center
10:59AM 49.7833 -95.4833 279° West 350 403 30,000  Level Winnipeg Center
11:00AM 49.8000 -95.6500 294° West 340 391 30,000  Level Winnipeg Center
11:01AM 49.8333 -95.7667 287° West 350 403 30,000  Level Winnipeg Center
11:02AM 49.8667 -95.9333 294° West 350 403 30,000  Level Winnipeg Center
11:03AM 49.9000 -96.0500 287° West 350 403 30,000  Level Winnipeg Center
11:04AM 49.9333 -96.2167 294° West 350 403 30,000  Level Winnipeg Center
11:05AM 49.9667 -96.3333 279° West 350 403 30,000  Level Winnipeg Center
11:06AM 49.9833 -96.5000 291° West 350 403 30,000  Level Winnipeg Center
11:07AM 50.0167 -96.6333 289° West 350 403 30,000  Level Winnipeg Center
11:08AM 50.0500 -96.7833 289° West 350 403 30,000  Level Winnipeg Center
11:09AM 50.0833 -96.9333 281° West 350 403 30,000  Level Winnipeg Center
11:10AM 50.1000 -97.0667 287° West 350 403 30,000  Level Winnipeg Center
11:11AM 50.1333 -97.2333 294° West 350 403 30,000  Level Winnipeg Center
11:12AM 50.1667 -97.3500 279° West 350 403 30,000  Level Winnipeg Center
11:13AM 50.1833 -97.5167 289° West 350 403 30,000  Level Winnipeg Center
11:14AM 50.2167 -97.6667 287° West 350 403 30,000  Level Winnipeg Center
11:15AM 50.2500 -97.8333 281° West 350 403 30,000  Level Winnipeg Center
11:16AM 50.2667 -97.9667 289° West 350 403 30,000  Level Winnipeg Center
11:17AM 50.3000 -98.1167 281° West 350 403 30,000  Level Winnipeg Center
11:18AM 50.3167 -98.2500 289° West 350 403 30,000  Level Winnipeg Center
11:19AM 50.3500 -98.4000 279° West 350 403 30,000  Level Winnipeg Center
11:20AM 50.3667 -98.5667 291° West 350 403 30,000  Level Winnipeg Center
11:21AM 50.4000 -98.7000 289° West 350 403 30,000  Level Winnipeg Center
11:22AM 50.4333 -98.8500 291° West 350 403 30,000  Level Winnipeg Center
11:23AM 50.4667 -98.9833 301° West 350 403 30,000  Level Winnipeg Center
11:24AM 50.5167 -99.1167 288° West 350 403 30,000  Level Winnipeg Center
11:25AM 50.5500 -99.2833 281° West 350 403 30,000  Level Winnipeg Center
11:26AM 50.5667 -99.4167 292° West 350 403 30,000  Level Winnipeg Center
11:27AM 50.6000 -99.5500 288° West 350 403 30,000  Level Winnipeg Center
11:28AM 50.6333 -99.7167 301° West 350 403 30,000  Level Winnipeg Center
11:29AM 50.6833 -99.8500 289° West 350 403 30,000  Level Winnipeg Center
11:30AM 50.7167 -100.0000 281° West 350 403 30,000  Level Winnipeg Center
11:31AM 50.7333 -100.1333 292° West 350 403 30,000  Level Winnipeg Center
11:32AM 50.7667 -100.2667 288° West 350 403 30,000  Level Winnipeg Center
11:33AM 50.8000 -100.4333 301° West 350 403 30,000  Level Winnipeg Center
11:34AM 50.8500 -100.5667 281° West 350 403 30,000  Level Winnipeg Center
11:35AM 50.8667 -100.7000 288° West 350 403 30,000  Level Winnipeg Center
11:36AM 50.9000 -100.8667 292° West 350 403 30,000  Level Winnipeg Center
11:37AM 50.9333 -101.0000 292° West 350 403 30,000  Level Winnipeg Center
11:38AM 50.9667 -101.1333 290° West 350 403 30,000 -540 Level Winnipeg Center
11:40AM 51.0333 -101.4333 288° West 360 414 28,500 -720 Descending Winnipeg Center
11:41AM 51.0667 -101.6000 288° West 360 414 28,000 -300 Descending Winnipeg Center
11:42AM 51.1000 -101.7667 292° West 370 426 28,000 -360 Level Winnipeg Center
11:43AM 51.1333 -101.9000 279° West 370 426 27,300 -840 Descending Winnipeg Center
11:44AM 51.1500 -102.0667 292° West 350 403 26,400 -660 Descending Winnipeg Center
11:45AM 51.1833 -102.2000 296° West 350 403 26,000 -240 Descending Winnipeg Center
11:46AM 51.2333 -102.3667 281° West 360 414 26,000  Level Winnipeg Center
11:47AM 51.2500 -102.5000 290° West 360 414 26,000  Level Winnipeg Center
11:48AM 51.2833 -102.6500 290° West 360 414 26,000  Level Winnipeg Center
11:49AM 51.3167 -102.8000 296° West 360 414 26,000  Level Winnipeg Center
11:50AM 51.3667 -102.9667 280° West 360 414 26,000  Level Winnipeg Center
11:51AM 51.3833 -103.1167 296° West 360 414 26,000  Level Winnipeg Center
11:52AM 51.4333 -103.2833 292° West 370 426 26,000  Level Winnipeg Center
11:53AM 51.4667 -103.4167 288° West 360 414 26,000  Level Winnipeg Center
11:54AM 51.5000 -103.5833 298° West 360 414 26,000  Level Winnipeg Center
11:55AM 51.5500 -103.7333 279° West 360 414 26,000  Level Winnipeg Center
11:56AM 51.5667 -103.9000 292° West 360 414 26,000  Level Winnipeg Center
11:57AM 51.6000 -104.0333 292° West 360 414 26,000  Level Winnipeg Center
11:58AM 51.6333 -104.1667 286° West 360 414 26,000  Level Winnipeg Center
11:59AM 51.6667 -104.3500 292° West 360 414 26,000  Level Winnipeg Center
12:00PM 51.7000 -104.4833 288° West 360 414 26,000  Level Winnipeg Center
12:01PM 51.7333 -104.6500 298° West 360 414 26,000  Level Winnipeg Center
12:02PM 51.7833 -104.8000 279° West 360 414 26,000  Level Winnipeg Center
12:03PM 51.8000 -104.9667 292° West 360 414 26,000  Level Winnipeg Center
12:04PM 51.8333 -105.1000 288° West 360 414 26,000 -840 Level Winnipeg Center
12:05PM 51.8667 -105.2667 295° West 360 414 24,400 -1,800 Descending Winnipeg Center
12:06PM 51.9000 -105.3833 288° West 340 391 22,400 -2,100 Descending Winnipeg Center
12:07PM 51.9333 -105.5500 283° West 340 391 20,200 -2,100 Descending Winnipeg Center
12:08PM 51.9500 -105.6667 290° West 330 380 18,200 -1,920 Descending Winnipeg Center
12:09PM 51.9833 -105.8167 292° West 320 368 16,400 -1,920 Descending Winnipeg Center
12:10PM 52.0167 -105.9500 270° West 320 368 14,400 -2,040 Descending Winnipeg Center
12:11PM 52.0167 -106.1000 282° West 310 357 12,400 -1,860 Descending Winnipeg Center
12:12PM 52.0333 -106.2333 270° West 300 345 10,700 -1,500 Descending Winnipeg Center
12:13PM 52.0333 -106.3500 270° West 280 322 9,500 -1,500 Descending Winnipeg Center
12:14PM 52.0333 -106.4500 290° West 270 311 7,700 -1,800 Descending Winnipeg Center
12:15PM 52.0667 -106.6000 270° West 270 311 5,900 -1,740 Descending Winnipeg Center
12:16PM 52.0667 -106.7000 295° West 270 311 4,300 -840 Descending Winnipeg Center
12:17PM 52.1000 -106.8167 270° West 270 311 4,300 -180 Level Winnipeg Center
12:18PM 52.1000 -106.9333 283° West 250 288 4,000 -180 Descending Winnipeg Center
12:19PM 52.1167 -107.0500 270° West 210 242 4,000 -180 Level Winnipeg Center
12:20PM 52.1167 -107.1000 12° North 200 230 3,700 -540 Descending Winnipeg Center
12:21PM 52.1667 -107.0833 51° Northeast 190 219 3,000 -360 Descending Winnipeg Center
12:22PM 52.2000 -107.0167 108° East 190 219 3,000  Level Winnipeg Center
12:23PM 52.1833 -106.9333 90° East 180 207 3,000  Level Winnipeg Center
12:24PM 52.1833 -106.8667 90° East 170 196 3,000  Level Winnipeg Center